Terminal Aerodrome Forecast
Issued by NWS

Home | Current Version | Previous Version | Text Only | Print | Product List | Glossary On
Versions: 1 2 3 4 5 6 7 8 9 10 11 12 13 14
000
FTUS46 KMTR 250528
TAFSTS
TAF
KSTS 250528Z 2506/2606 15003KT P6SM SCT008
      TEMPO 2506/2508 BKN008
     FM250800 15004KT P6SM OVC006
      TEMPO 2508/2510 6SM BR OVC003
     FM251600 VRB03KT P6SM SCT010
     FM252100 17010KT P6SM SKC
     FM260500 15005KT P6SM SKC=

USA.gov is the U.S. government's official web portal to all federal, state and local government web resources and services.